Terminal Aerodrome Forecast
Issued by NWS

Home | Current Version | Previous Version | Text Only | Print | Product List | Glossary On
Versions: 1 2 3 4 5 6 7 8 9 10 11 12 13 14 15 16 17
146
FTUS43 KDLH 271729
TAFHIB
TAF
KHIB 271729Z 2718/2818 15006KT P6SM VCSH SCT025 BKN050
      TEMPO 2718/2722 BKN025
     FM272200 17007KT P6SM VCTS SCT030 BKN070CB
     FM280300 00000KT P6SM VCSH SCT040
     FM280800 00000KT 1SM BR VCSH SCT001
      TEMPO 2808/2812 1/2SM FG OVC001
     FM281500 16005KT P6SM SCT020=

USA.gov is the U.S. government's official web portal to all federal, state and local government web resources and services.